Time;durP1;ratioP1;P1;durP2;ratioP2;P2;SDS_P1;SDS_P2;PMS_P1;PMS_P2;Temp;Humidity;BMP_temperature;BMP_pressure;BME280_temperature;BME280_humidity;BME280_pressure;Samples;Min_cycle;Max_cycle;Signal;HPM_P1;HPM_P2
2022/10/15 00:02:12;;;;;;;0.30;0.30;;;14.40;99.90;;;;;;6191044;23;20394;-85
2022/10/15 00:04:39;;;;;;;0.60;0.60;;;14.40;99.90;;;;;;6191401;23;20420;-84
2022/10/15 00:07:05;;;;;;;1.00;0.70;;;14.40;99.90;;;;;;6191500;23;20446;-85
2022/10/15 00:09:33;;;;;;;1.07;0.97;;;14.40;99.90;;;;;;6190687;23;20433;-85
2022/10/15 00:12:00;;;;;;;0.30;0.30;;;14.40;99.90;;;;;;6191559;23;20409;-84
2022/10/15 00:14:27;;;;;;;0.40;0.40;;;14.40;99.90;;;;;;6190977;23;20410;-85
2022/10/15 00:16:54;;;;;;;0.73;0.70;;;14.40;99.90;;;;;;6190907;23;20405;-85
2022/10/15 00:19:20;;;;;;;0.40;0.40;;;14.40;99.90;;;;;;6190340;23;20417;-85
2022/10/15 00:21:47;;;;;;;0.87;0.60;;;14.50;99.90;;;;;;6190917;23;20409;-84
2022/10/15 00:24:14;;;;;;;0.70;0.70;;;14.40;99.90;;;;;;6191656;23;20410;-85
2022/10/15 00:26:42;;;;;;;0.60;0.60;;;14.50;99.90;;;;;;6190812;23;20909;-85
2022/10/15 00:29:09;;;;;;;0.60;0.60;;;14.50;99.90;;;;;;6190569;23;20774;-85
2022/10/15 00:31:35;;;;;;;0.50;0.50;;;14.50;99.90;;;;;;6190712;23;20446;-84
2022/10/15 00:34:02;;;;;;;0.60;0.50;;;14.50;99.90;;;;;;6190449;23;20416;-84
2022/10/15 00:36:32;;;;;;;0.50;0.50;;;14.50;99.90;;;;;;6190926;23;20468;-85
2022/10/15 00:38:59;;;;;;;0.30;0.30;;;14.60;99.90;;;;;;6198974;23;20417;-84
2022/10/15 00:41:28;;;;;;;1.27;0.50;;;14.60;99.90;;;;;;6194497;23;20921;-85
2022/10/15 00:43:58;;;;;;;2.00;0.80;;;14.50;99.90;;;;;;6190680;23;20931;-85
2022/10/15 00:46:30;;;;;;;0.43;0.43;;;14.60;99.90;;;;;;6190722;23;20719;-85
2022/10/15 00:49:00;;;;;;;0.50;0.50;;;14.60;99.90;;;;;;6190993;23;20697;-85
2022/10/15 00:51:31;;;;;;;1.27;1.17;;;14.60;99.90;;;;;;6191036;23;20429;-84
2022/10/15 00:53:58;;;;;;;0.60;0.60;;;14.60;99.90;;;;;;6190690;23;20394;-85
2022/10/15 00:56:27;;;;;;;0.90;0.40;;;14.60;99.90;;;;;;6190975;23;20410;-84
2022/10/15 00:58:57;;;;;;;0.47;0.47;;;14.60;99.90;;;;;;6190072;23;20509;-84
2022/10/15 01:01:25;;;;;;;0.73;0.50;;;14.60;99.90;;;;;;6190583;23;20440;-85
2022/10/15 01:03:52;;;;;;;0.80;0.40;;;14.70;99.90;;;;;;6190653;23;20892;-85
2022/10/15 01:06:19;;;;;;;0.60;0.57;;;14.50;99.90;;;;;;6207133;23;20476;-83
2022/10/15 01:08:46;;;;;;;0.97;0.80;;;14.50;99.90;;;;;;6207745;23;20445;-83
2022/10/15 01:11:26;;;;;;;0.47;0.40;;;14.60;99.90;;;;;;6200377;23;20425;-84
2022/10/15 01:14:01;;;;;;;0.50;0.50;;;14.50;99.90;;;;;;6190540;23;20394;-85
2022/10/15 01:16:36;;;;;;;0.63;0.63;;;14.50;99.90;;;;;;6191127;23;20408;-84
2022/10/15 01:19:11;;;;;;;1.37;0.50;;;14.50;99.90;;;;;;6190288;23;20386;-85
2022/10/15 01:21:42;;;;;;;1.30;0.40;;;14.50;99.90;;;;;;6190068;23;20404;-84
2022/10/15 01:24:42;;;;;;;2.03;0.50;;;14.60;99.90;;;;;;6190174;23;20424;-84
2022/10/15 01:27:27;;;;;;;1.43;0.40;;;14.70;99.90;;;;;;6189792;23;20434;-84
2022/10/15 01:30:22;;;;;;;0.60;0.60;;;14.70;99.90;;;;;;6189969;23;20444;-84
2022/10/15 01:33:02;;;;;;;0.30;0.30;;;14.60;99.90;;;;;;6194892;23;20387;-84
2022/10/15 01:35:38;;;;;;;1.33;0.67;;;14.60;99.90;;;;;;6194649;23;20397;-84
2022/10/15 01:38:12;;;;;;;0.47;0.47;;;14.70;99.90;;;;;;6190724;23;20771;-84
2022/10/15 01:40:46;;;;;;;0.70;0.70;;;14.70;99.90;;;;;;6190216;23;20587;-84
2022/10/15 01:43:17;;;;;;;0.50;0.40;;;14.70;99.90;;;;;;6190809;23;20394;-84
2022/10/15 01:45:49;;;;;;;1.37;0.63;;;14.70;99.90;;;;;;6190047;23;20394;-84
2022/10/15 01:48:18;;;;;;;0.60;0.40;;;14.80;99.90;;;;;;6189835;23;20434;-84
2022/10/15 01:50:47;;;;;;;3.70;0.60;;;14.80;99.90;;;;;;6189228;23;20539;-84
2022/10/15 01:53:17;;;;;;;0.40;0.40;;;14.80;99.90;;;;;;6190220;23;20469;-85
2022/10/15 01:55:45;;;;;;;0.30;0.30;;;14.80;99.90;;;;;;6190184;23;20414;-85
2022/10/15 01:58:16;;;;;;;0.40;0.40;;;14.80;99.90;;;;;;6190311;23;20406;-84
2022/10/15 02:00:43;;;;;;;2.53;0.50;;;14.70;99.90;;;;;;6189237;23;20468;-84
2022/10/15 02:03:10;;;;;;;1.03;0.40;;;14.80;99.90;;;;;;6190163;23;20420;-84
2022/10/15 02:05:42;;;;;;;0.50;0.40;;;14.70;99.90;;;;;;6189700;23;20413;-84
2022/10/15 02:08:19;;;;;;;0.40;0.37;;;14.80;99.90;;;;;;6189268;23;20436;-84
2022/10/15 02:10:54;;;;;;;0.60;0.60;;;14.80;99.90;;;;;;6189105;23;20967;-84
2022/10/15 02:13:27;;;;;;;0.60;0.60;;;14.80;99.90;;;;;;6189904;23;20721;-84
2022/10/15 02:16:02;;;;;;;0.40;0.40;;;14.70;99.90;;;;;;6190214;23;20713;-84
2022/10/15 02:18:36;;;;;;;0.30;0.30;;;14.70;99.90;;;;;;6189234;23;20396;-84
2022/10/15 02:21:08;;;;;;;1.57;1.47;;;14.70;99.90;;;;;;6189069;23;20728;-84
2022/10/15 02:23:41;;;;;;;1.03;0.30;;;14.70;99.90;;;;;;6189122;23;20392;-84
2022/10/15 02:26:10;;;;;;;0.60;0.57;;;14.70;99.90;;;;;;6189426;23;20401;-84
2022/10/15 02:28:40;;;;;;;0.70;0.70;;;14.80;99.90;;;;;;6197729;23;20536;-84
2022/10/15 02:31:10;;;;;;;0.70;0.70;;;14.80;99.90;;;;;;6189869;23;20436;-84
2022/10/15 02:33:38;;;;;;;0.63;0.63;;;14.80;99.90;;;;;;6188999;23;20889;-84
2022/10/15 02:36:08;;;;;;;0.50;0.50;;;14.80;99.90;;;;;;6189775;23;20406;-84
2022/10/15 02:38:36;;;;;;;1.00;0.40;;;14.80;99.90;;;;;;6191295;23;20402;-84
2022/10/15 02:41:03;;;;;;;1.07;0.50;;;14.90;99.90;;;;;;6191573;23;20435;-84
2022/10/15 02:43:30;;;;;;;0.60;0.60;;;14.90;99.90;;;;;;6191597;23;20413;-84
2022/10/15 02:45:57;;;;;;;0.30;0.30;;;15.00;99.90;;;;;;6191096;23;20410;-84
2022/10/15 02:48:24;;;;;;;0.60;0.60;;;15.00;99.90;;;;;;6189233;23;20441;-83
2022/10/15 02:50:51;;;;;;;0.50;0.50;;;14.90;99.90;;;;;;6189546;23;20444;-83
2022/10/15 02:53:19;;;;;;;0.40;0.40;;;14.90;99.90;;;;;;6189805;23;20418;-83
2022/10/15 02:55:46;;;;;;;0.53;0.50;;;14.90;99.90;;;;;;6189306;23;20410;-83
2022/10/15 02:58:13;;;;;;;1.93;0.60;;;14.80;99.90;;;;;;6188784;23;20410;-83
2022/10/15 03:00:40;;;;;;;1.40;0.60;;;14.90;99.90;;;;;;6188662;23;20445;-83
2022/10/15 03:03:06;;;;;;;0.50;0.50;;;14.90;99.90;;;;;;6188724;23;20410;-82
2022/10/15 03:05:35;;;;;;;0.60;0.50;;;15.00;99.90;;;;;;6188589;23;20410;-82
2022/10/15 03:08:01;;;;;;;0.43;0.40;;;15.00;99.90;;;;;;6188061;23;20451;-82
2022/10/15 03:10:29;;;;;;;0.63;0.57;;;15.00;99.90;;;;;;6188340;23;20436;-83
2022/10/15 03:13:01;;;;;;;0.40;0.40;;;15.10;99.90;;;;;;6189044;23;20484;-83
2022/10/15 03:15:28;;;;;;;0.50;0.43;;;15.00;99.90;;;;;;6188539;23;20413;-83
2022/10/15 03:17:55;;;;;;;0.40;0.30;;;15.00;99.90;;;;;;6188948;23;20879;-83
2022/10/15 03:20:21;;;;;;;0.50;0.40;;;15.00;99.90;;;;;;6188371;23;20441;-83
2022/10/15 03:22:48;;;;;;;0.60;0.30;;;15.00;99.90;;;;;;6199433;23;20410;-83
2022/10/15 03:25:15;;;;;;;1.67;0.33;;;15.00;99.90;;;;;;6190852;23;21073;-83
2022/10/15 03:27:43;;;;;;;1.23;0.40;;;15.10;99.90;;;;;;6188865;23;20450;-83
2022/10/15 03:30:11;;;;;;;1.20;0.50;;;15.20;99.90;;;;;;6188752;23;20426;-83
2022/10/15 03:32:37;;;;;;;0.30;0.30;;;15.20;99.90;;;;;;6188970;23;20444;-83
2022/10/15 03:35:05;;;;;;;0.47;0.47;;;15.30;99.90;;;;;;6188879;23;20411;-83
2022/10/15 03:37:31;;;;;;;1.53;0.40;;;15.30;99.90;;;;;;6189048;23;20417;-83
2022/10/15 03:39:58;;;;;;;0.30;0.30;;;15.20;99.90;;;;;;6189222;23;20817;-83
2022/10/15 03:42:25;;;;;;;1.43;0.60;;;15.30;99.90;;;;;;6193124;23;20415;-83
2022/10/15 03:44:53;;;;;;;0.90;0.57;;;15.30;99.90;;;;;;6195507;23;20441;-84
2022/10/15 03:47:20;;;;;;;0.50;0.50;;;15.30;99.90;;;;;;6190563;23;20445;-84
2022/10/15 03:49:46;;;;;;;0.50;0.40;;;15.30;99.90;;;;;;6190405;23;20944;-84
2022/10/15 03:52:13;;;;;;;0.77;0.50;;;15.30;99.90;;;;;;6191246;23;20419;-84
2022/10/15 03:54:40;;;;;;;0.93;0.40;;;15.30;99.90;;;;;;6191061;23;20432;-84
2022/10/15 03:57:07;;;;;;;0.60;0.60;;;15.30;99.90;;;;;;6190828;23;20406;-84
2022/10/15 03:59:33;;;;;;;0.83;0.53;;;15.30;99.90;;;;;;6190398;23;20437;-83
2022/10/15 04:02:02;;;;;;;0.50;0.40;;;15.30;99.90;;;;;;6191130;23;20877;-83
2022/10/15 04:04:29;;;;;;;0.60;0.50;;;15.40;99.90;;;;;;6191651;23;20450;-83
2022/10/15 04:06:55;;;;;;;0.50;0.50;;;15.40;99.90;;;;;;6193977;23;20406;-82
2022/10/15 04:09:22;;;;;;;0.60;0.33;;;15.40;99.90;;;;;;6208535;23;20451;-81
2022/10/15 04:11:49;;;;;;;0.40;0.40;;;15.40;99.90;;;;;;6208748;23;20406;-82
2022/10/15 04:14:15;;;;;;;0.37;0.37;;;15.40;99.90;;;;;;6198087;23;20421;-83
2022/10/15 04:16:42;;;;;;;0.60;0.60;;;15.40;99.90;;;;;;6194186;23;20410;-83
2022/10/15 04:19:10;;;;;;;0.77;0.77;;;15.30;99.90;;;;;;6199585;23;20420;-83
2022/10/15 04:21:37;;;;;;;0.40;0.40;;;15.30;99.90;;;;;;6190881;23;20432;-83
2022/10/15 04:24:04;;;;;;;0.50;0.40;;;15.30;99.90;;;;;;6190984;23;20494;-84
2022/10/15 04:26:31;;;;;;;1.07;0.30;;;15.30;99.90;;;;;;6190380;23;20410;-83
2022/10/15 04:28:57;;;;;;;0.70;0.53;;;15.40;99.90;;;;;;6190086;23;20782;-84
2022/10/15 04:31:24;;;;;;;0.37;0.37;;;15.40;99.90;;;;;;6190222;23;20430;-83
2022/10/15 04:33:51;;;;;;;0.40;0.40;;;15.40;99.90;;;;;;6190230;23;20518;-83
2022/10/15 04:36:19;;;;;;;0.57;0.40;;;15.40;99.90;;;;;;6190353;23;20410;-83
2022/10/15 04:38:46;;;;;;;0.53;0.43;;;15.30;99.90;;;;;;6190776;23;20402;-84
2022/10/15 04:41:13;;;;;;;0.40;0.40;;;15.30;99.90;;;;;;6189943;23;20434;-84
2022/10/15 04:43:40;;;;;;;1.30;0.57;;;15.40;99.90;;;;;;6190788;23;20416;-83
2022/10/15 04:46:07;;;;;;;0.37;0.37;;;15.40;99.90;;;;;;6190407;23;20410;-83
2022/10/15 04:48:36;;;;;;;0.40;0.30;;;15.40;99.90;;;;;;6190147;23;20446;-83
2022/10/15 04:51:04;;;;;;;0.50;0.50;;;15.50;99.90;;;;;;6189966;23;20438;-84
2022/10/15 04:53:33;;;;;;;0.40;0.40;;;15.50;99.90;;;;;;6189611;23;20417;-84
2022/10/15 04:56:01;;;;;;;0.50;0.50;;;15.50;99.90;;;;;;6190339;23;20766;-83
2022/10/15 04:58:30;;;;;;;0.40;0.40;;;15.50;99.90;;;;;;6189115;23;20426;-84
2022/10/15 06:58:09;;;;;;;3.17;2.37;;;15.60;99.90;;;;;;5737057;24;20475;-86
2022/10/15 07:00:51;;;;;;;1.33;1.23;;;15.70;99.90;;;;;;5799272;24;20444;-87
2022/10/15 07:03:25;;;;;;;0.70;0.70;;;15.60;99.90;;;;;;5895971;24;20416;-86
2022/10/15 07:05:55;;;;;;;1.00;1.00;;;15.70;99.90;;;;;;6084929;23;20422;-85
2022/10/15 07:08:23;;;;;;;0.90;0.90;;;15.70;99.90;;;;;;6158540;23;20447;-85
2022/10/15 07:42:19;;;;;;;3.60;1.27;;;15.80;99.90;;;;;;5816952;24;20857;-83
2022/10/15 07:44:56;;;;;;;0.70;0.70;;;15.80;99.90;;;;;;5940757;23;20926;-82
2022/10/15 07:47:23;;;;;;;1.00;0.80;;;15.80;99.90;;;;;;6013263;23;20443;-82
2022/10/15 07:49:49;;;;;;;1.10;0.80;;;15.90;99.90;;;;;;6132071;23;20450;-83
2022/10/15 07:52:16;;;;;;;5.33;1.40;;;15.90;99.90;;;;;;6158481;23;20490;-84
2022/10/15 07:54:43;;;;;;;0.70;0.70;;;15.80;99.90;;;;;;6157454;23;20898;-83
2022/10/15 07:57:11;;;;;;;1.23;1.00;;;15.90;99.90;;;;;;6157226;23;20411;-83
2022/10/15 07:59:38;;;;;;;0.80;0.80;;;15.90;99.90;;;;;;6155031;23;20407;-83
2022/10/15 08:02:05;;;;;;;1.43;1.30;;;16.00;99.90;;;;;;6139206;23;20446;-81
2022/10/15 08:04:37;;;;;;;0.80;0.80;;;16.00;99.90;;;;;;6126500;23;20423;-84
2022/10/15 08:07:17;;;;;;;1.73;1.63;;;16.00;99.90;;;;;;6126447;23;20392;-85
2022/10/15 08:09:43;;;;;;;1.83;1.00;;;16.00;99.90;;;;;;6125915;23;20447;-84
2022/10/15 08:12:17;;;;;;;1.30;1.20;;;16.10;99.90;;;;;;6126380;23;20451;-85
2022/10/15 08:14:47;;;;;;;1.23;0.90;;;16.10;99.90;;;;;;6125514;23;20464;-85
2022/10/15 08:17:14;;;;;;;0.90;0.70;;;16.20;99.90;;;;;;6125983;23;20506;-85
2022/10/15 08:19:42;;;;;;;0.80;0.80;;;16.10;99.90;;;;;;6125715;23;20479;-85
2022/10/15 08:22:16;;;;;;;1.07;0.90;;;16.20;99.90;;;;;;6125808;23;20425;-85
2022/10/15 08:25:45;;;;;;;1.03;0.90;;;16.30;99.90;;;;;;6126086;23;20872;-84
2022/10/15 08:28:14;;;;;;;0.87;0.87;;;16.30;99.90;;;;;;6067920;23;20416;-85
2022/10/15 08:30:49;;;;;;;0.60;0.60;;;16.30;99.90;;;;;;6125172;23;20435;-85
2022/10/15 08:33:19;;;;;;;0.83;0.83;;;16.40;99.90;;;;;;6126994;23;20408;-84
2022/10/15 08:35:46;;;;;;;0.87;0.70;;;16.40;99.90;;;;;;6125071;23;20432;-83
2022/10/15 08:38:13;;;;;;;1.30;0.57;;;16.40;99.90;;;;;;6125795;23;20503;-84
2022/10/15 08:40:45;;;;;;;1.00;0.70;;;16.50;99.90;;;;;;6126012;23;20439;-83
2022/10/15 08:43:21;;;;;;;1.10;0.77;;;16.50;99.90;;;;;;6126074;23;20912;-84
2022/10/15 08:45:52;;;;;;;0.47;0.47;;;16.50;99.90;;;;;;6126360;23;20407;-83
2022/10/15 08:48:26;;;;;;;0.60;0.60;;;16.60;99.90;;;;;;6128458;23;20421;-84
2022/10/15 08:50:57;;;;;;;0.70;0.60;;;16.70;99.90;;;;;;6130700;23;20438;-83
2022/10/15 08:53:25;;;;;;;0.80;0.80;;;16.70;99.90;;;;;;6130276;23;20396;-84
2022/10/15 08:55:55;;;;;;;0.80;0.80;;;16.70;99.90;;;;;;6129569;23;20472;-84
2022/10/15 08:58:29;;;;;;;1.13;0.70;;;16.80;99.90;;;;;;6128575;23;20412;-84
2022/10/15 09:01:04;;;;;;;1.73;0.97;;;16.70;99.90;;;;;;6127959;23;20437;-84
2022/10/15 09:03:39;;;;;;;0.70;0.70;;;16.80;99.90;;;;;;6127916;23;20407;-83
2022/10/15 09:06:13;;;;;;;0.90;0.50;;;16.90;99.90;;;;;;6128987;23;20385;-84
2022/10/15 09:08:51;;;;;;;0.73;0.73;;;17.00;99.90;;;;;;6127740;23;20477;-84
2022/10/15 09:11:30;;;;;;;0.40;0.40;;;17.00;99.90;;;;;;6101947;23;20448;-84
2022/10/15 09:14:04;;;;;;;0.77;0.77;;;17.00;99.90;;;;;;6127338;23;20989;-84
2022/10/15 09:16:41;;;;;;;0.53;0.40;;;17.10;99.90;;;;;;6126677;23;20424;-85
2022/10/15 09:19:29;;;;;;;0.83;0.83;;;17.20;99.90;;;;;;6126775;23;20410;-84
2022/10/15 09:22:15;;;;;;;0.40;0.40;;;17.20;99.90;;;;;;6126125;23;20529;-84
2022/10/15 09:25:22;;;;;;;1.37;0.60;;;17.30;99.90;;;;;;6128052;23;20453;-85
2022/10/15 09:59:00;;;;;;;1.30;0.43;;;17.60;99.90;;;;;;6093873;23;20403;-87
2022/10/15 10:01:41;;;;;;;1.57;0.63;;;17.80;99.90;;;;;;5946367;23;20473;-86
2022/10/15 10:07:46;;;;;;;0.73;0.70;;;18.10;99.90;;;;;;5973439;23;20433;-86
2022/10/15 10:27:27;;;;;;;1.30;0.60;;;17.90;99.90;;;;;;5827911;24;20515;-85
2022/10/15 10:30:31;;;;;;;4.13;0.87;;;17.70;99.90;;;;;;5994090;23;20459;-85
2022/10/15 10:33:13;;;;;;;1.37;1.00;;;17.70;99.90;;;;;;6184293;23;20406;-85
2022/10/15 10:35:50;;;;;;;1.17;0.80;;;17.70;99.90;;;;;;6184496;23;20378;-85
2022/10/15 10:58:02;;;;;;;3.07;0.90;;;20.50;99.90;;;;;;6001674;23;20802;-85
2022/10/15 11:00:36;;;;;;;0.70;0.70;;;20.70;99.90;;;;;;6149480;23;20458;-82
2022/10/15 11:03:04;;;;;;;1.00;0.87;;;20.50;99.90;;;;;;6219339;23;20385;-82
2022/10/15 11:05:39;;;;;;;0.60;0.60;;;20.20;99.90;;;;;;6219701;23;20420;-82
2022/10/15 11:08:14;;;;;;;1.57;0.80;;;19.70;99.90;;;;;;6219494;23;20396;-82
2022/10/15 11:10:52;;;;;;;0.77;0.77;;;19.40;99.90;;;;;;6210423;23;20431;-82
2022/10/15 11:13:33;;;;;;;1.07;0.90;;;19.30;99.90;;;;;;6190003;23;20398;-82
2022/10/15 11:16:05;;;;;;;1.00;0.77;;;19.20;99.90;;;;;;6189324;23;20404;-81
2022/10/15 11:18:47;;;;;;;1.70;1.33;;;19.20;99.90;;;;;;6188841;23;20397;-81
2022/10/15 11:21:22;;;;;;;0.47;0.47;;;19.50;99.90;;;;;;6188732;23;20456;-82
2022/10/15 11:24:04;;;;;;;1.70;1.53;;;19.40;99.90;;;;;;6189925;23;20397;-81
2022/10/15 11:26:42;;;;;;;0.60;0.60;;;19.30;99.90;;;;;;6189497;23;20408;-82
2022/10/15 11:29:14;;;;;;;0.70;0.50;;;19.30;99.90;;;;;;6188834;23;20427;-81
2022/10/15 11:31:47;;;;;;;1.53;0.57;;;19.30;99.90;;;;;;6189376;23;20436;-82
2022/10/15 11:34:29;;;;;;;1.80;0.80;;;19.20;99.90;;;;;;6189253;23;20393;-82
2022/10/15 11:37:11;;;;;;;0.70;0.70;;;19.30;99.90;;;;;;6189410;23;20396;-81
2022/10/15 11:39:58;;;;;;;1.67;1.00;;;19.30;99.90;;;;;;6188728;23;20433;-81
2022/10/15 11:42:36;;;;;;;0.73;0.57;;;19.30;99.90;;;;;;6188725;23;20407;-82
2022/10/15 11:45:29;;;;;;;1.77;0.63;;;19.30;99.90;;;;;;6189743;23;20393;-80
2022/10/15 11:48:02;;;;;;;1.60;0.80;;;19.20;99.90;;;;;;6193869;23;20413;-82
2022/10/15 11:50:32;;;;;;;0.60;0.60;;;19.30;99.90;;;;;;6189413;23;20437;-82
2022/10/15 11:53:17;;;;;;;0.83;0.50;;;19.30;99.90;;;;;;6189932;23;20572;-82
2022/10/15 11:55:49;;;;;;;0.60;0.57;;;19.10;99.90;;;;;;6189451;23;20403;-82
2022/10/15 11:58:27;;;;;;;1.00;0.67;;;18.80;99.90;;;;;;6189156;23;20410;-82
2022/10/15 12:00:59;;;;;;;0.83;0.83;;;18.80;99.90;;;;;;6189258;23;20796;-81
2022/10/15 12:03:28;;;;;;;2.60;0.80;;;19.00;99.90;;;;;;6189705;23;20393;-82
2022/10/15 12:05:59;;;;;;;2.30;0.70;;;19.20;99.90;;;;;;6189620;23;20443;-82
2022/10/15 12:08:33;;;;;;;0.70;0.70;;;19.30;99.90;;;;;;6189262;23;20398;-81
2022/10/15 12:11:13;;;;;;;2.73;0.60;;;19.20;99.90;;;;;;6189755;23;20427;-82
2022/10/15 12:13:50;;;;;;;0.90;0.90;;;19.20;99.90;;;;;;6188847;23;20392;-81
2022/10/15 12:16:26;;;;;;;0.70;0.70;;;19.00;99.90;;;;;;6189654;23;20393;-82
2022/10/15 12:19:00;;;;;;;1.13;0.90;;;19.00;99.90;;;;;;6189745;23;20393;-81
2022/10/15 12:21:59;;;;;;;0.47;0.47;;;19.00;99.90;;;;;;6190294;23;20425;-82
2022/10/15 12:24:56;;;;;;;0.40;0.40;;;19.00;99.90;;;;;;6190000;23;20480;-81
2022/10/15 12:27:33;;;;;;;1.00;1.00;;;18.80;99.90;;;;;;6098136;23;20396;-84
2022/10/15 12:30:23;;;;;;;0.83;0.83;;;18.70;99.90;;;;;;6173639;23;20448;-81
2022/10/15 12:32:51;;;;;;;0.60;0.60;;;18.40;99.90;;;;;;6189691;23;20778;-81
2022/10/15 12:35:37;;;;;;;1.23;0.70;;;18.30;99.90;;;;;;6189921;23;20412;-83
2022/10/15 12:38:12;;;;;;;1.10;1.07;;;18.20;99.90;;;;;;6189107;23;20417;-81
2022/10/15 12:40:40;;;;;;;0.87;0.83;;;18.10;99.90;;;;;;6189280;23;20953;-82
2022/10/15 12:43:14;;;;;;;1.30;0.87;;;18.20;99.90;;;;;;6194925;23;20415;-81
2022/10/15 12:45:51;;;;;;;1.03;0.80;;;18.20;99.90;;;;;;6190267;23;20447;-81
2022/10/15 12:48:30;;;;;;;1.40;1.30;;;18.00;99.90;;;;;;6191184;23;20424;-83
2022/10/15 12:51:34;;;;;;;1.10;1.00;;;18.10;99.90;;;;;;6190488;23;20511;-82
2022/10/15 12:54:01;;;;;;;1.00;0.90;;;17.90;99.90;;;;;;6144083;23;20452;-81
2022/10/15 12:56:39;;;;;;;0.77;0.57;;;18.00;99.90;;;;;;6190825;23;20413;-81
2022/10/15 12:59:31;;;;;;;1.07;1.07;;;17.80;99.90;;;;;;6190516;23;20397;-81
2022/10/15 13:01:58;;;;;;;1.97;0.63;;;17.80;99.90;;;;;;6189948;23;20428;-81
2022/10/15 13:04:37;;;;;;;1.13;1.10;;;17.60;99.90;;;;;;6191057;23;20722;-81
2022/10/15 13:07:05;;;;;;;1.57;1.47;;;17.70;99.90;;;;;;6192557;23;20484;-83
2022/10/15 13:09:31;;;;;;;1.17;0.90;;;17.60;99.90;;;;;;6192925;23;20738;-83
2022/10/15 13:12:00;;;;;;;0.90;0.90;;;17.50;99.90;;;;;;6191125;23;20432;-82
2022/10/15 13:14:35;;;;;;;0.93;0.90;;;17.40;99.90;;;;;;6190354;23;20434;-81
2022/10/15 13:17:05;;;;;;;1.57;1.47;;;17.30;99.90;;;;;;6189695;23;20423;-81
2022/10/15 13:19:36;;;;;;;0.80;0.80;;;17.30;99.90;;;;;;6189352;23;20468;-82
2022/10/15 13:22:05;;;;;;;1.20;1.10;;;17.40;99.90;;;;;;6187442;23;20440;-82
2022/10/15 13:24:41;;;;;;;1.17;1.07;;;17.30;99.90;;;;;;6188784;23;20412;-81
2022/10/15 13:27:15;;;;;;;2.27;0.87;;;17.30;99.90;;;;;;6188982;23;20404;-81
2022/10/15 13:29:59;;;;;;;2.77;1.17;;;17.40;99.90;;;;;;6188864;23;20739;-81
2022/10/15 13:32:27;;;;;;;1.40;1.30;;;17.40;99.90;;;;;;6188790;23;20404;-81
2022/10/15 13:34:56;;;;;;;1.37;1.10;;;17.30;99.90;;;;;;6188948;23;20435;-81
2022/10/15 13:37:29;;;;;;;1.30;1.20;;;17.10;99.90;;;;;;6191447;23;20486;-81
2022/10/15 13:39:56;;;;;;;1.23;1.10;;;17.00;99.90;;;;;;6194421;23;20395;-81
2022/10/15 13:42:24;;;;;;;0.97;0.70;;;16.90;99.90;;;;;;6188536;23;20447;-81
2022/10/15 13:45:00;;;;;;;1.20;1.10;;;17.00;99.90;;;;;;6188858;23;20417;-82
2022/10/15 13:47:30;;;;;;;1.30;1.20;;;16.90;99.90;;;;;;6189826;23;20859;-81
2022/10/15 13:50:20;;;;;;;0.80;0.80;;;17.10;99.90;;;;;;6188524;23;20534;-81
2022/10/15 13:52:52;;;;;;;2.10;1.73;;;17.00;99.90;;;;;;6188692;23;20443;-81
2022/10/15 13:55:22;;;;;;;1.20;1.20;;;16.80;99.90;;;;;;6188989;23;20400;-80
2022/10/15 13:57:51;;;;;;;5.60;1.70;;;16.70;99.90;;;;;;6189149;23;20432;-81
2022/10/15 14:00:26;;;;;;;1.60;0.90;;;16.60;99.90;;;;;;6189128;23;20996;-80
2022/10/15 14:03:30;;;;;;;1.43;1.27;;;16.70;99.90;;;;;;6191278;23;20395;-85
2022/10/15 14:06:17;;;;;;;1.23;1.10;;;16.60;99.90;;;;;;6195849;23;20898;-85
2022/10/15 14:16:13;;;;;;;0.90;0.90;;;16.50;99.90;;;;;;6181995;23;20936;-85
2022/10/15 14:18:46;;;;;;;2.33;1.70;;;16.60;99.90;;;;;;6197098;23;20424;-84
2022/10/15 14:21:16;;;;;;;1.40;1.30;;;16.50;99.90;;;;;;6185326;23;20423;-85
2022/10/15 14:23:44;;;;;;;0.80;0.80;;;16.60;99.90;;;;;;6187362;23;20420;-85
2022/10/15 14:26:15;;;;;;;1.10;1.00;;;16.60;99.90;;;;;;6188787;23;20457;-85
2022/10/15 14:47:59;;;;;;;2.80;1.20;;;17.10;99.90;;;;;;6207013;23;104210;-84
2022/10/15 14:50:30;;;;;;;1.30;1.17;;;17.10;99.90;;;;;;6167234;23;20451;-85
2022/10/15 14:53:21;;;;;;;0.80;0.80;;;17.20;99.90;;;;;;6170013;23;20427;-84
2022/10/15 14:55:59;;;;;;;1.90;1.50;;;17.30;99.90;;;;;;6176386;23;20402;-85
2022/10/15 15:09:20;;;;;;;1.40;1.30;;;17.50;99.90;;;;;;6103652;23;20944;-85
2022/10/15 15:11:55;;;;;;;1.40;0.83;;;17.50;99.90;;;;;;6129230;23;21041;-85
2022/10/15 15:14:25;;;;;;;0.93;0.83;;;17.50;99.90;;;;;;6168442;23;20380;-83
2022/10/15 15:20:51;;;;;;;0.80;0.80;;;17.60;99.90;;;;;;5965378;24;20433;-83
2022/10/15 15:23:28;;;;;;;1.30;1.10;;;17.80;99.90;;;;;;5964740;23;20431;-82
2022/10/15 15:26:02;;;;;;;1.30;1.30;;;17.70;99.90;;;;;;6162881;23;20442;-82
2022/10/15 15:34:15;;;;;;;1.27;0.90;;;17.90;99.90;;;;;;6181779;23;20480;-85
2022/10/15 15:36:42;;;;;;;1.43;0.73;;;18.00;99.90;;;;;;6181738;23;20438;-85
2022/10/15 15:39:09;;;;;;;6.03;1.13;;;18.10;99.90;;;;;;6180076;23;20423;-85
2022/10/15 15:41:37;;;;;;;2.07;1.00;;;18.00;99.90;;;;;;6181154;23;20426;-85
2022/10/15 15:44:11;;;;;;;1.90;0.70;;;18.00;99.90;;;;;;6170217;23;20477;-86
2022/10/15 15:46:38;;;;;;;0.50;0.50;;;17.90;99.90;;;;;;6167819;23;20472;-84
2022/10/15 15:49:09;;;;;;;1.13;0.80;;;17.80;99.90;;;;;;6168164;23;20419;-84
2022/10/15 15:51:36;;;;;;;1.57;0.70;;;17.80;99.90;;;;;;6167918;23;20451;-83
2022/10/15 15:54:20;;;;;;;0.63;0.60;;;17.80;99.90;;;;;;6167531;23;20500;-86
2022/10/15 15:56:48;;;;;;;1.00;0.70;;;17.60;99.90;;;;;;6165637;23;20411;-85
2022/10/15 15:59:15;;;;;;;0.70;0.70;;;17.40;99.90;;;;;;6163047;23;20879;-85
2022/10/15 16:01:42;;;;;;;0.70;0.70;;;17.20;99.90;;;;;;6174743;23;20463;-84
2022/10/15 16:04:09;;;;;;;0.70;0.70;;;17.20;99.90;;;;;;6176164;23;20435;-83
2022/10/15 16:06:37;;;;;;;0.60;0.60;;;17.20;99.90;;;;;;6174950;23;20419;-83
2022/10/15 16:09:04;;;;;;;2.17;0.90;;;17.10;99.90;;;;;;6174088;23;20409;-83
2022/10/15 16:11:33;;;;;;;1.10;0.97;;;17.10;99.90;;;;;;6170015;23;20943;-85
2022/10/15 16:14:02;;;;;;;0.50;0.50;;;16.90;99.90;;;;;;6171841;23;20412;-85
2022/10/15 16:16:29;;;;;;;0.90;0.70;;;16.90;99.90;;;;;;6173729;23;20474;-83
2022/10/15 16:18:56;;;;;;;0.63;0.60;;;16.90;99.90;;;;;;6171592;23;20422;-83
2022/10/15 16:21:23;;;;;;;1.50;0.97;;;16.80;99.90;;;;;;6169799;23;20438;-81
2022/10/15 16:23:50;;;;;;;1.33;0.83;;;16.90;99.90;;;;;;6170884;23;20423;-80
2022/10/15 16:26:17;;;;;;;0.70;0.70;;;16.80;99.90;;;;;;6174902;23;20418;-81
2022/10/15 16:28:44;;;;;;;0.83;0.83;;;16.70;99.90;;;;;;6173949;23;20476;-81
2022/10/15 16:31:17;;;;;;;1.00;1.00;;;16.70;99.90;;;;;;6174732;23;20787;-81
2022/10/15 16:33:44;;;;;;;0.87;0.87;;;16.50;99.90;;;;;;6174651;23;20436;-81
2022/10/15 16:36:11;;;;;;;1.47;0.90;;;16.40;99.90;;;;;;6170385;23;20476;-83
2022/10/15 16:38:39;;;;;;;1.30;1.20;;;16.30;99.90;;;;;;6174150;23;20506;-83
2022/10/15 16:41:07;;;;;;;2.10;1.27;;;16.30;99.90;;;;;;6173960;23;20458;-85
2022/10/15 16:43:34;;;;;;;0.80;0.80;;;16.40;99.90;;;;;;6170797;23;20449;-84
2022/10/15 16:46:05;;;;;;;1.60;1.10;;;16.40;99.90;;;;;;6173774;23;20415;-84
2022/10/15 16:48:34;;;;;;;1.00;0.80;;;16.40;99.90;;;;;;6167718;23;20422;-81
2022/10/15 16:51:02;;;;;;;1.37;1.10;;;16.40;99.90;;;;;;6168690;23;20469;-81
2022/10/15 16:53:29;;;;;;;1.23;1.23;;;16.40;99.90;;;;;;6165288;23;20590;-83
2022/10/15 16:56:00;;;;;;;1.20;0.93;;;16.40;99.90;;;;;;6164122;23;20479;-82
2022/10/15 16:58:28;;;;;;;1.27;1.17;;;16.40;99.90;;;;;;6163869;23;20714;-81
2022/10/15 17:00:59;;;;;;;2.30;1.63;;;16.40;99.90;;;;;;6171896;23;20472;-83
2022/10/15 17:03:26;;;;;;;1.70;1.30;;;16.40;99.90;;;;;;6200382;23;20418;-83
2022/10/15 17:05:57;;;;;;;1.63;1.53;;;16.30;99.90;;;;;;6202721;23;20485;-83
2022/10/15 17:08:26;;;;;;;1.73;0.83;;;16.30;99.90;;;;;;6199494;23;20398;-82
2022/10/15 17:10:52;;;;;;;1.10;1.00;;;16.30;99.90;;;;;;6203572;23;20991;-81
2022/10/15 17:13:20;;;;;;;0.73;0.73;;;16.30;99.90;;;;;;6202948;23;20488;-82
2022/10/15 17:15:46;;;;;;;1.10;1.10;;;16.30;99.90;;;;;;6204067;23;20409;-81
2022/10/15 17:18:13;;;;;;;1.83;0.90;;;16.10;99.90;;;;;;6205086;23;20470;-83
2022/10/15 17:20:44;;;;;;;2.93;1.23;;;16.20;99.90;;;;;;6203143;23;20664;-84
2022/10/15 17:23:13;;;;;;;2.70;1.43;;;16.10;99.90;;;;;;6199100;23;20406;-84
2022/10/15 17:25:39;;;;;;;2.43;2.23;;;16.10;99.90;;;;;;6194979;23;20453;-83
2022/10/15 17:28:07;;;;;;;2.20;1.23;;;16.20;99.90;;;;;;6193750;23;20410;-83
2022/10/15 17:30:35;;;;;;;1.43;1.33;;;16.20;99.90;;;;;;6193489;23;20429;-83
2022/10/15 17:33:02;;;;;;;3.73;1.60;;;16.20;99.90;;;;;;6194517;23;20897;-83
2022/10/15 17:35:30;;;;;;;2.83;1.53;;;16.20;99.90;;;;;;6192984;23;20445;-84
2022/10/15 17:37:57;;;;;;;1.97;1.87;;;16.10;99.90;;;;;;6201435;23;20437;-85
2022/10/15 17:40:25;;;;;;;1.93;1.73;;;16.00;99.90;;;;;;6199167;23;20417;-84